Terminal Aerodrome Forecast
Issued by NWS El Paso, TX

Home | Current Version | Previous Version | Text Only | Print | Product List | Glossary On
Versions: 1 2 3 4 5 6 7 8 9 10 11 12 13
000
FTUS44 KEPZ 252326
TAFELP
TAF
KELP 252326Z 2600/2624 26020G30KT P6SM FEW110
     FM260900 26016KT P6SM SKC
     FM261300 25017G24KT P6SM SKC=

USA.gov is the U.S. government's official web portal to all federal, state and local government web resources and services.